sensor_id;sensor_type;location;lat;lon;timestamp;pressure;altitude;pressure_sealevel;temperature;humidity
21902;BME280;11115;46.038;14.612;2023-05-03T00:02:04;98864.47;;;11.83;100.00
21902;BME280;11115;46.038;14.612;2023-05-03T00:04:44;98860.94;;;11.64;100.00
21902;BME280;11115;46.038;14.612;2023-05-03T00:07:22;98862.78;;;11.68;100.00
21902;BME280;11115;46.038;14.612;2023-05-03T00:09:54;98863.28;;;11.70;100.00
21902;BME280;11115;46.038;14.612;2023-05-03T00:12:39;98852.81;;;11.67;100.00
21902;BME280;11115;46.038;14.612;2023-05-03T00:15:13;98858.19;;;11.77;100.00
21902;BME280;11115;46.038;14.612;2023-05-03T00:17:45;98854.03;;;11.75;100.00
21902;BME280;11115;46.038;14.612;2023-05-03T00:20:15;98854.31;;;11.78;100.00
21902;BME280;11115;46.038;14.612;2023-05-03T00:22:47;98857.44;;;11.72;100.00
21902;BME280;11115;46.038;14.612;2023-05-03T00:25:20;98856.31;;;11.73;100.00
21902;BME280;11115;46.038;14.612;2023-05-03T00:27:52;98854.66;;;11.72;100.00
21902;BME280;11115;46.038;14.612;2023-05-03T00:30:20;98849.13;;;11.72;100.00
21902;BME280;11115;46.038;14.612;2023-05-03T00:33:00;98850.47;;;11.74;100.00
21902;BME280;11115;46.038;14.612;2023-05-03T00:35:30;98849.75;;;11.69;100.00
21902;BME280;11115;46.038;14.612;2023-05-03T00:38:02;98845.03;;;11.69;100.00
21902;BME280;11115;46.038;14.612;2023-05-03T00:40:37;98842.56;;;11.68;100.00
21902;BME280;11115;46.038;14.612;2023-05-03T00:43:10;98845.44;;;11.63;100.00
21902;BME280;11115;46.038;14.612;2023-05-03T00:45:40;98827.47;;;11.46;100.00
21902;BME280;11115;46.038;14.612;2023-05-03T00:48:23;98846.13;;;11.54;100.00
21902;BME280;11115;46.038;14.612;2023-05-03T00:50:55;98844.19;;;11.55;100.00
21902;BME280;11115;46.038;14.612;2023-05-03T00:53:28;98833.31;;;11.45;100.00
21902;BME280;11115;46.038;14.612;2023-05-03T00:55:59;98842.22;;;11.55;100.00
21902;BME280;11115;46.038;14.612;2023-05-03T00:58:46;98845.94;;;11.51;100.00
21902;BME280;11115;46.038;14.612;2023-05-03T01:01:22;98841.22;;;11.51;100.00
21902;BME280;11115;46.038;14.612;2023-05-03T01:03:56;98824.88;;;11.36;100.00
21902;BME280;11115;46.038;14.612;2023-05-03T01:06:39;98837.53;;;11.42;100.00
21902;BME280;11115;46.038;14.612;2023-05-03T01:18:13;98840.38;;;11.51;100.00
21902;BME280;11115;46.038;14.612;2023-05-03T01:20:49;98848.09;;;11.54;100.00
21902;BME280;11115;46.038;14.612;2023-05-03T01:23:33;98843.06;;;11.56;100.00
21902;BME280;11115;46.038;14.612;2023-05-03T01:26:26;98839.06;;;11.48;100.00
21902;BME280;11115;46.038;14.612;2023-05-03T01:29:02;98801.28;;;11.25;100.00
21902;BME280;11115;46.038;14.612;2023-05-03T01:31:53;98838.53;;;11.33;100.00
21902;BME280;11115;46.038;14.612;2023-05-03T01:34:43;98837.19;;;11.30;100.00
21902;BME280;11115;46.038;14.612;2023-05-03T01:37:34;98827.34;;;11.24;100.00
21902;BME280;11115;46.038;14.612;2023-05-03T01:40:13;98848.16;;;11.35;100.00
21902;BME280;11115;46.038;14.612;2023-05-03T01:42:47;98835.44;;;11.34;100.00
21902;BME280;11115;46.038;14.612;2023-05-03T01:45:20;98844.16;;;11.28;100.00
21902;BME280;11115;46.038;14.612;2023-05-03T01:47:51;98831.22;;;11.23;100.00
21902;BME280;11115;46.038;14.612;2023-05-03T01:50:23;98844.78;;;11.24;100.00
21902;BME280;11115;46.038;14.612;2023-05-03T01:53:10;98843.34;;;11.27;100.00
21902;BME280;11115;46.038;14.612;2023-05-03T01:55:41;98788.06;;;10.89;100.00
21902;BME280;11115;46.038;14.612;2023-05-03T01:58:10;98841.88;;;11.16;100.00
21902;BME280;11115;46.038;14.612;2023-05-03T02:00:40;98852.56;;;11.22;100.00
21902;BME280;11115;46.038;14.612;2023-05-03T02:03:09;98827.41;;;11.05;100.00
21902;BME280;11115;46.038;14.612;2023-05-03T02:05:50;98841.88;;;11.16;100.00
21902;BME280;11115;46.038;14.612;2023-05-03T02:08:37;98847.03;;;11.22;100.00
21902;BME280;11115;46.038;14.612;2023-05-03T02:11:12;98849.38;;;11.29;100.00
21902;BME280;11115;46.038;14.612;2023-05-03T02:13:41;98836.47;;;11.24;100.00
21902;BME280;11115;46.038;14.612;2023-05-03T02:16:09;98843.03;;;11.29;100.00
21902;BME280;11115;46.038;14.612;2023-05-03T02:18:52;98835.84;;;11.28;100.00
21902;BME280;11115;46.038;14.612;2023-05-03T02:21:39;98833.06;;;11.28;100.00
21902;BME280;11115;46.038;14.612;2023-05-03T02:24:10;98829.50;;;11.27;100.00
21902;BME280;11115;46.038;14.612;2023-05-03T02:26:37;98822.47;;;11.16;100.00
21902;BME280;11115;46.038;14.612;2023-05-03T02:29:09;98832.06;;;11.23;100.00
21902;BME280;11115;46.038;14.612;2023-05-03T02:31:40;98836.31;;;11.16;100.00
21902;BME280;11115;46.038;14.612;2023-05-03T02:34:11;98831.81;;;11.06;100.00
21902;BME280;11115;46.038;14.612;2023-05-03T02:36:42;98829.75;;;11.12;100.00
21902;BME280;11115;46.038;14.612;2023-05-03T02:39:12;98827.50;;;11.14;100.00
21902;BME280;11115;46.038;14.612;2023-05-03T02:41:45;98759.13;;;10.68;100.00
21902;BME280;11115;46.038;14.612;2023-05-03T02:44:17;98815.59;;;11.00;100.00
21902;BME280;11115;46.038;14.612;2023-05-03T02:46:46;98836.81;;;11.04;100.00
21902;BME280;11115;46.038;14.612;2023-05-03T02:49:17;98833.25;;;11.04;100.00
21902;BME280;11115;46.038;14.612;2023-05-03T02:51:50;98832.84;;;11.10;100.00
21902;BME280;11115;46.038;14.612;2023-05-03T02:54:32;98826.16;;;11.11;100.00
21902;BME280;11115;46.038;14.612;2023-05-03T02:57:07;98825.75;;;11.04;100.00
21902;BME280;11115;46.038;14.612;2023-05-03T02:59:39;98829.13;;;11.01;100.00
21902;BME280;11115;46.038;14.612;2023-05-03T03:02:15;98826.66;;;11.00;100.00
21902;BME280;11115;46.038;14.612;2023-05-03T03:05:00;98828.53;;;11.04;100.00
21902;BME280;11115;46.038;14.612;2023-05-03T03:07:32;98819.56;;;10.93;100.00
21902;BME280;11115;46.038;14.612;2023-05-03T03:10:03;98832.84;;;11.10;100.00
21902;BME280;11115;46.038;14.612;2023-05-03T03:12:38;98823.34;;;10.98;100.00
21902;BME280;11115;46.038;14.612;2023-05-03T03:15:18;98832.00;;;11.10;100.00
21902;BME280;11115;46.038;14.612;2023-05-03T03:17:49;98831.09;;;11.14;100.00
21902;BME280;11115;46.038;14.612;2023-05-03T03:20:27;98832.44;;;11.17;100.00
21902;BME280;11115;46.038;14.612;2023-05-03T03:22:59;98832.63;;;11.07;100.00
21902;BME280;11115;46.038;14.612;2023-05-03T03:25:33;98831.38;;;10.99;100.00
21902;BME280;11115;46.038;14.612;2023-05-03T03:28:06;98823.84;;;10.86;100.00
21902;BME280;11115;46.038;14.612;2023-05-03T03:30:37;98833.59;;;10.97;100.00
21902;BME280;11115;46.038;14.612;2023-05-03T03:33:18;98836.06;;;10.99;100.00
21902;BME280;11115;46.038;14.612;2023-05-03T03:35:54;98830.63;;;10.93;100.00
21902;BME280;11115;46.038;14.612;2023-05-03T03:38:30;98836.91;;;10.99;100.00
21902;BME280;11115;46.038;14.612;2023-05-03T03:41:14;98846.88;;;11.00;100.00
21902;BME280;11115;46.038;14.612;2023-05-03T03:43:54;98840.56;;;10.94;100.00
21902;BME280;11115;46.038;14.612;2023-05-03T03:46:25;98842.22;;;10.95;100.00
21902;BME280;11115;46.038;14.612;2023-05-03T03:48:58;98847.16;;;10.99;100.00
21902;BME280;11115;46.038;14.612;2023-05-03T03:51:31;98847.44;;;10.97;100.00
21902;BME280;11115;46.038;14.612;2023-05-03T03:54:01;98839.91;;;11.03;100.00
21902;BME280;11115;46.038;14.612;2023-05-03T03:56:36;98854.88;;;11.02;100.00
21902;BME280;11115;46.038;14.612;2023-05-03T03:59:05;98849.03;;;11.03;100.00
21902;BME280;11115;46.038;14.612;2023-05-03T04:01:42;98841.69;;;10.93;100.00
21902;BME280;11115;46.038;14.612;2023-05-03T04:04:15;98846.81;;;10.86;100.00
21902;BME280;11115;46.038;14.612;2023-05-03T04:07:00;98845.69;;;10.87;100.00
21902;BME280;11115;46.038;14.612;2023-05-03T04:09:37;98840.38;;;10.91;100.00
21902;BME280;11115;46.038;14.612;2023-05-03T04:12:06;98844.16;;;10.95;100.00
21902;BME280;11115;46.038;14.612;2023-05-03T04:14:34;98848.50;;;11.01;100.00
21902;BME280;11115;46.038;14.612;2023-05-03T04:17:06;98854.56;;;11.03;100.00
21902;BME280;11115;46.038;14.612;2023-05-03T04:19:39;98843.84;;;10.97;100.00
21902;BME280;11115;46.038;14.612;2023-05-03T04:22:12;98855.91;;;11.06;100.00
21902;BME280;11115;46.038;14.612;2023-05-03T04:24:40;98860.31;;;11.07;100.00
21902;BME280;11115;46.038;14.612;2023-05-03T04:27:09;98857.03;;;11.05;100.00
21902;BME280;11115;46.038;14.612;2023-05-03T04:29:51;98855.38;;;11.04;100.00
21902;BME280;11115;46.038;14.612;2023-05-03T04:32:24;98837.69;;;10.86;100.00
21902;BME280;11115;46.038;14.612;2023-05-03T04:35:18;98863.03;;;10.93;100.00
21902;BME280;11115;46.038;14.612;2023-05-03T04:37:48;98856.16;;;10.90;100.00
21902;BME280;11115;46.038;14.612;2023-05-03T04:40:24;98857.78;;;10.91;100.00
21902;BME280;11115;46.038;14.612;2023-05-03T04:43:00;98856.84;;;10.82;100.00
21902;BME280;11115;46.038;14.612;2023-05-03T04:45:36;98852.97;;;10.83;100.00
21902;BME280;11115;46.038;14.612;2023-05-03T04:48:12;98854.63;;;10.98;100.00
21902;BME280;11115;46.038;14.612;2023-05-03T04:51:06;98864.31;;;11.01;100.00
21902;BME280;11115;46.038;14.612;2023-05-03T04:53:37;98850.19;;;10.83;100.00
21902;BME280;11115;46.038;14.612;2023-05-03T04:56:15;98875.28;;;11.06;100.00
21902;BME280;11115;46.038;14.612;2023-05-03T04:58:47;98876.63;;;11.08;100.00
21902;BME280;11115;46.038;14.612;2023-05-03T05:01:28;98875.50;;;11.09;100.00
21902;BME280;11115;46.038;14.612;2023-05-03T05:04:17;98875.28;;;11.06;100.00
21902;BME280;11115;46.038;14.612;2023-05-03T05:06:51;98881.69;;;11.20;100.00
21902;BME280;11115;46.038;14.612;2023-05-03T05:09:26;98887.81;;;11.17;100.00
21902;BME280;11115;46.038;14.612;2023-05-03T05:11:57;98875.28;;;11.06;100.00
21902;BME280;11115;46.038;14.612;2023-05-03T05:14:35;98840.97;;;10.88;100.00
21902;BME280;11115;46.038;14.612;2023-05-03T05:17:13;98886.63;;;11.23;100.00
21902;BME280;11115;46.038;14.612;2023-05-03T05:19:44;98896.66;;;11.19;100.00
21902;BME280;11115;46.038;14.612;2023-05-03T05:22:16;98901.59;;;11.22;100.00
21902;BME280;11115;46.038;14.612;2023-05-03T05:24:55;98889.50;;;11.32;100.00
21902;BME280;11115;46.038;14.612;2023-05-03T05:27:28;98897.50;;;11.33;100.00
21902;BME280;11115;46.038;14.612;2023-05-03T05:30:07;98898.25;;;11.39;100.00
21902;BME280;11115;46.038;14.612;2023-05-03T05:32:39;98888.81;;;11.40;100.00
21902;BME280;11115;46.038;14.612;2023-05-03T05:35:12;98897.66;;;11.55;100.00
21902;BME280;11115;46.038;14.612;2023-05-03T05:37:46;98905.66;;;11.43;100.00
21902;BME280;11115;46.038;14.612;2023-05-03T05:40:16;98907.50;;;11.48;100.00
21902;BME280;11115;46.038;14.612;2023-05-03T05:42:54;98886.25;;;11.43;100.00
21902;BME280;11115;46.038;14.612;2023-05-03T05:45:30;98909.47;;;11.61;100.00
21902;BME280;11115;46.038;14.612;2023-05-03T05:48:05;98910.09;;;11.72;100.00
21902;BME280;11115;46.038;14.612;2023-05-03T05:50:39;98908.31;;;11.81;100.00
21902;BME280;11115;46.038;14.612;2023-05-03T05:53:18;98915.28;;;11.78;100.00
21902;BME280;11115;46.038;14.612;2023-05-03T05:55:58;98916.31;;;11.82;100.00
21902;BME280;11115;46.038;14.612;2023-05-03T05:58:35;98913.13;;;11.89;100.00
21902;BME280;11115;46.038;14.612;2023-05-03T06:01:09;98907.69;;;11.84;100.00
21902;BME280;11115;46.038;14.612;2023-05-03T06:03:43;98920.50;;;11.94;100.00
21902;BME280;11115;46.038;14.612;2023-05-03T06:06:20;98922.38;;;11.84;100.00
21902;BME280;11115;46.038;14.612;2023-05-03T06:08:51;98925.44;;;11.83;100.00
21902;BME280;11115;46.038;14.612;2023-05-03T06:11:22;98924.72;;;11.91;100.00
21902;BME280;11115;46.038;14.612;2023-05-03T06:13:54;98920.84;;;12.06;100.00
21902;BME280;11115;46.038;14.612;2023-05-03T06:16:27;98926.38;;;12.20;100.00
21902;BME280;11115;46.038;14.612;2023-05-03T06:19:09;98917.75;;;12.07;100.00
21902;BME280;11115;46.038;14.612;2023-05-03T06:21:47;98926.19;;;12.16;100.00
21902;BME280;11115;46.038;14.612;2023-05-03T06:24:21;98931.31;;;12.23;100.00
21902;BME280;11115;46.038;14.612;2023-05-03T06:27:01;98883.75;;;11.88;100.00
21902;BME280;11115;46.038;14.612;2023-05-03T06:29:38;98928.66;;;12.18;100.00
21902;BME280;11115;46.038;14.612;2023-05-03T06:32:09;98925.97;;;12.26;100.00
21902;BME280;11115;46.038;14.612;2023-05-03T06:34:41;98929.75;;;12.30;100.00
21902;BME280;11115;46.038;14.612;2023-05-03T06:37:09;98927.41;;;12.10;100.00
21902;BME280;11115;46.038;14.612;2023-05-03T06:39:40;98933.97;;;12.28;100.00
21902;BME280;11115;46.038;14.612;2023-05-03T06:42:08;98934.28;;;12.26;100.00
21902;BME280;11115;46.038;14.612;2023-05-03T06:44:39;98924.63;;;12.37;100.00
21902;BME280;11115;46.038;14.612;2023-05-03T06:47:24;98911.97;;;12.31;100.00
21902;BME280;11115;46.038;14.612;2023-05-03T06:50:00;98936.75;;;12.41;100.00
21902;BME280;11115;46.038;14.612;2023-05-03T06:52:35;98903.75;;;12.40;100.00
21902;BME280;11115;46.038;14.612;2023-05-03T06:55:16;98934.41;;;12.71;100.00
21902;BME280;11115;46.038;14.612;2023-05-03T06:57:48;98943.03;;;12.83;100.00
21902;BME280;11115;46.038;14.612;2023-05-03T07:00:21;98939.94;;;12.85;100.00
21902;BME280;11115;46.038;14.612;2023-05-03T07:02:57;98935.00;;;12.95;100.00
21902;BME280;11115;46.038;14.612;2023-05-03T07:05:28;98939.97;;;13.21;100.00
21902;BME280;11115;46.038;14.612;2023-05-03T07:07:58;98939.13;;;13.20;100.00
21902;BME280;11115;46.038;14.612;2023-05-03T07:10:40;98937.75;;;13.31;100.00
21902;BME280;11115;46.038;14.612;2023-05-03T07:13:16;98942.09;;;13.46;100.00
21902;BME280;11115;46.038;14.612;2023-05-03T07:15:59;98933.88;;;13.41;100.00
21902;BME280;11115;46.038;14.612;2023-05-03T07:18:30;98929.22;;;13.28;100.00
21902;BME280;11115;46.038;14.612;2023-05-03T07:21:02;98930.28;;;13.41;100.00
21902;BME280;11115;46.038;14.612;2023-05-03T07:23:38;98909.72;;;13.19;100.00
21902;BME280;11115;46.038;14.612;2023-05-03T07:26:12;98924.69;;;13.32;100.00
21902;BME280;11115;46.038;14.612;2023-05-03T07:28:41;98912.56;;;13.50;100.00
21902;BME280;11115;46.038;14.612;2023-05-03T07:31:10;98908.69;;;13.15;100.00
21902;BME280;11115;46.038;14.612;2023-05-03T07:33:38;98908.06;;;13.18;100.00
21902;BME280;11115;46.038;14.612;2023-05-03T07:36:10;98916.84;;;13.34;100.00
21902;BME280;11115;46.038;14.612;2023-05-03T07:38:43;98928.69;;;13.71;100.00
21902;BME280;11115;46.038;14.612;2023-05-03T07:41:16;98918.28;;;13.54;100.00
21902;BME280;11115;46.038;14.612;2023-05-03T07:43:46;98911.34;;;13.43;100.00
21902;BME280;11115;46.038;14.612;2023-05-03T07:46:16;98923.31;;;13.74;100.00
21902;BME280;11115;46.038;14.612;2023-05-03T07:48:48;98929.00;;;13.47;100.00
21902;BME280;11115;46.038;14.612;2023-05-03T07:51:21;98927.34;;;13.68;100.00
21902;BME280;11115;46.038;14.612;2023-05-03T07:53:55;98931.53;;;13.88;100.00
21902;BME280;11115;46.038;14.612;2023-05-03T07:56:27;98928.00;;;13.96;100.00
21902;BME280;11115;46.038;14.612;2023-05-03T07:58:58;98925.22;;;14.05;100.00
21902;BME280;11115;46.038;14.612;2023-05-03T08:01:32;98921.59;;;13.95;100.00
21902;BME280;11115;46.038;14.612;2023-05-03T08:04:15;98933.25;;;14.06;100.00
21902;BME280;11115;46.038;14.612;2023-05-03T08:06:50;98921.19;;;14.19;100.00
21902;BME280;11115;46.038;14.612;2023-05-03T08:09:24;98932.81;;;14.13;100.00
21902;BME280;11115;46.038;14.612;2023-05-03T08:11:55;98878.00;;;13.74;100.00
21902;BME280;11115;46.038;14.612;2023-05-03T08:14:26;98912.63;;;14.07;100.00
21902;BME280;11115;46.038;14.612;2023-05-03T08:16:57;98930.91;;;14.31;100.00
21902;BME280;11115;46.038;14.612;2023-05-03T08:19:29;98925.59;;;14.51;100.00
21902;BME280;11115;46.038;14.612;2023-05-03T08:21:59;98926.97;;;14.32;100.00
21902;BME280;11115;46.038;14.612;2023-05-03T08:24:32;98934.84;;;14.38;100.00
21902;BME280;11115;46.038;14.612;2023-05-03T08:27:08;98922.41;;;14.27;100.00
21902;BME280;11115;46.038;14.612;2023-05-03T08:29:37;98939.59;;;14.38;100.00
21902;BME280;11115;46.038;14.612;2023-05-03T08:32:13;98934.69;;;14.35;100.00
21902;BME280;11115;46.038;14.612;2023-05-03T08:34:40;98909.75;;;14.21;100.00
21902;BME280;11115;46.038;14.612;2023-05-03T08:37:08;98933.03;;;14.34;100.00
21902;BME280;11115;46.038;14.612;2023-05-03T08:39:46;98936.56;;;14.48;100.00
21902;BME280;11115;46.038;14.612;2023-05-03T08:42:16;98932.31;;;14.59;100.00
21902;BME280;11115;46.038;14.612;2023-05-03T08:44:49;98939.34;;;14.56;100.00
21902;BME280;11115;46.038;14.612;2023-05-03T08:47:23;98931.63;;;14.45;100.00
21902;BME280;11115;46.038;14.612;2023-05-03T08:50:12;98949.34;;;14.57;100.00
21902;BME280;11115;46.038;14.612;2023-05-03T08:52:48;98940.34;;;14.52;100.00
21902;BME280;11115;46.038;14.612;2023-05-03T08:55:27;98947.69;;;14.48;100.00
21902;BME280;11115;46.038;14.612;2023-05-03T08:58:11;98942.31;;;14.60;100.00
21902;BME280;11115;46.038;14.612;2023-05-03T09:00:50;98946.09;;;14.73;100.00
21902;BME280;11115;46.038;14.612;2023-05-03T09:03:36;98937.25;;;14.71;100.00
21902;BME280;11115;46.038;14.612;2023-05-03T09:06:22;98943.16;;;14.78;100.00
21902;BME280;11115;46.038;14.612;2023-05-03T09:09:06;98944.97;;;14.82;100.00
21902;BME280;11115;46.038;14.612;2023-05-03T09:11:38;98946.47;;;14.88;100.00
21902;BME280;11115;46.038;14.612;2023-05-03T09:14:17;98938.56;;;14.82;100.00
21902;BME280;11115;46.038;14.612;2023-05-03T09:16:49;98938.59;;;14.91;100.00
21902;BME280;11115;46.038;14.612;2023-05-03T09:19:20;98941.69;;;14.80;100.00
21902;BME280;11115;46.038;14.612;2023-05-03T09:21:52;98945.63;;;14.79;100.00
21902;BME280;11115;46.038;14.612;2023-05-03T09:24:38;98949.09;;;14.85;100.00
21902;BME280;11115;46.038;14.612;2023-05-03T09:27:24;98942.34;;;14.69;100.00
21902;BME280;11115;46.038;14.612;2023-05-03T09:29:54;98938.91;;;14.72;100.00
21902;BME280;11115;46.038;14.612;2023-05-03T09:32:47;98953.34;;;14.91;100.00
21902;BME280;11115;46.038;14.612;2023-05-03T09:35:19;98939.56;;;14.86;100.00
21902;BME280;11115;46.038;14.612;2023-05-03T09:37:50;98942.16;;;14.82;100.00
21902;BME280;11115;46.038;14.612;2023-05-03T09:40:44;98937.41;;;14.83;100.00
21902;BME280;11115;46.038;14.612;2023-05-03T09:43:17;98937.94;;;14.94;100.00
21902;BME280;11115;46.038;14.612;2023-05-03T09:45:49;98926.28;;;14.83;100.00
21902;BME280;11115;46.038;14.612;2023-05-03T09:48:21;98933.00;;;14.82;100.00
21902;BME280;11115;46.038;14.612;2023-05-03T09:50:52;98923.34;;;14.88;100.00
21902;BME280;11115;46.038;14.612;2023-05-03T09:53:28;98934.16;;;14.98;100.00
21902;BME280;11115;46.038;14.612;2023-05-03T09:56:03;98929.59;;;15.11;100.00
21902;BME280;11115;46.038;14.612;2023-05-03T09:58:43;98929.09;;;15.26;100.00
21902;BME280;11115;46.038;14.612;2023-05-03T10:01:28;98875.81;;;14.84;100.00
21902;BME280;11115;46.038;14.612;2023-05-03T10:03:58;98905.81;;;15.13;100.00
21902;BME280;11115;46.038;14.612;2023-05-03T10:06:35;98906.47;;;15.28;100.00
21902;BME280;11115;46.038;14.612;2023-05-03T10:09:11;98909.88;;;15.33;100.00
21902;BME280;11115;46.038;14.612;2023-05-03T10:11:51;98913.31;;;15.39;100.00
21902;BME280;11115;46.038;14.612;2023-05-03T10:14:20;98912.84;;;15.45;100.00
21902;BME280;11115;46.038;14.612;2023-05-03T10:16:54;98915.44;;;15.51;100.00
21902;BME280;11115;46.038;14.612;2023-05-03T10:19:50;98915.78;;;15.32;100.00
21902;BME280;11115;46.038;14.612;2023-05-03T10:22:27;98913.50;;;15.34;100.00
21902;BME280;11115;46.038;14.612;2023-05-03T10:27:52;98909.41;;;15.31;100.00
21902;BME280;11115;46.038;14.612;2023-05-03T10:30:31;98906.13;;;15.21;100.00
21902;BME280;11115;46.038;14.612;2023-05-03T10:35:53;98915.13;;;15.35;100.00
21902;BME280;11115;46.038;14.612;2023-05-03T10:38:25;98919.75;;;15.31;100.00
21902;BME280;11115;46.038;14.612;2023-05-03T10:40:58;98915.63;;;15.37;100.00
21902;BME280;11115;46.038;14.612;2023-05-03T10:45:57;98911.50;;;15.52;100.00
21902;BME280;11115;46.038;14.612;2023-05-03T10:48:29;98910.19;;;15.49;100.00
21902;BME280;11115;46.038;14.612;2023-05-03T10:51:33;98905.94;;;15.52;100.00
21902;BME280;11115;46.038;14.612;2023-05-03T10:54:04;98906.91;;;15.56;100.00
21902;BME280;11115;46.038;14.612;2023-05-03T10:56:46;98911.84;;;15.59;100.00
21902;BME280;11115;46.038;14.612;2023-05-03T10:59:20;98922.81;;;15.72;100.00
21902;BME280;11115;46.038;14.612;2023-05-03T11:01:55;98905.09;;;15.51;100.00
21902;BME280;11115;46.038;14.612;2023-05-03T11:04:37;98902.97;;;15.48;100.00
21902;BME280;11115;46.038;14.612;2023-05-03T11:07:22;98902.47;;;15.55;100.00
21902;BME280;11115;46.038;14.612;2023-05-03T11:09:51;98904.59;;;15.58;100.00
21902;BME280;11115;46.038;14.612;2023-05-03T11:12:19;98905.59;;;15.53;100.00
21902;BME280;11115;46.038;14.612;2023-05-03T11:14:54;98899.53;;;15.60;100.00
21902;BME280;11115;46.038;14.612;2023-05-03T11:17:24;98852.34;;;15.29;100.00
21902;BME280;11115;46.038;14.612;2023-05-03T11:20:06;98907.22;;;15.54;100.00
21902;BME280;11115;46.038;14.612;2023-05-03T11:22:43;98899.03;;;15.49;100.00
21902;BME280;11115;46.038;14.612;2023-05-03T11:25:20;98884.97;;;15.28;100.00
21902;BME280;11115;46.038;14.612;2023-05-03T11:27:55;98892.16;;;15.38;100.00
21902;BME280;11115;46.038;14.612;2023-05-03T11:30:23;98883.69;;;15.26;100.00
21902;BME280;11115;46.038;14.612;2023-05-03T11:32:53;98901.69;;;15.37;100.00
21902;BME280;11115;46.038;14.612;2023-05-03T11:35:24;98901.84;;;15.32;100.00
21902;BME280;11115;46.038;14.612;2023-05-03T11:37:58;98903.84;;;15.31;100.00
21902;BME280;11115;46.038;14.612;2023-05-03T11:40:28;98903.34;;;15.29;100.00
21902;BME280;11115;46.038;14.612;2023-05-03T11:43:12;98906.78;;;15.26;100.00
21902;BME280;11115;46.038;14.612;2023-05-03T11:45:46;98888.94;;;15.10;100.00
21902;BME280;11115;46.038;14.612;2023-05-03T11:48:26;98909.59;;;15.26;100.00
21902;BME280;11115;46.038;14.612;2023-05-03T11:51:06;98910.56;;;15.30;100.00
21902;BME280;11115;46.038;14.612;2023-05-03T11:53:40;98911.22;;;15.27;100.00
21902;BME280;11115;46.038;14.612;2023-05-03T11:56:19;98912.00;;;15.45;100.00
21902;BME280;11115;46.038;14.612;2023-05-03T11:59:00;98907.91;;;15.51;100.00
21902;BME280;11115;46.038;14.612;2023-05-03T12:01:35;98899.88;;;15.49;100.00
21902;BME280;11115;46.038;14.612;2023-05-03T12:04:17;98899.19;;;15.61;100.00
21902;BME280;11115;46.038;14.612;2023-05-03T12:06:49;98904.28;;;15.59;100.00
21902;BME280;11115;46.038;14.612;2023-05-03T12:09:23;98889.19;;;15.52;100.00
21902;BME280;11115;46.038;14.612;2023-05-03T12:11:57;98910.53;;;15.65;100.00
21902;BME280;11115;46.038;14.612;2023-05-03T12:15:00;98909.00;;;15.76;100.00
21902;BME280;11115;46.038;14.612;2023-05-03T12:17:39;98901.16;;;15.69;100.00
21902;BME280;11115;46.038;14.612;2023-05-03T12:20:17;98907.56;;;15.70;100.00
21902;BME280;11115;46.038;14.612;2023-05-03T12:23:14;98905.41;;;15.58;100.00
21902;BME280;11115;46.038;14.612;2023-05-03T12:25:52;98900.84;;;15.62;100.00
21902;BME280;11115;46.038;14.612;2023-05-03T12:28:23;98895.91;;;15.59;100.00
21902;BME280;11115;46.038;14.612;2023-05-03T12:30:51;98904.13;;;15.64;100.00
21902;BME280;11115;46.038;14.612;2023-05-03T12:33:23;98894.72;;;15.77;100.00
21902;BME280;11115;46.038;14.612;2023-05-03T12:36:00;98898.38;;;15.69;100.00
21902;BME280;11115;46.038;14.612;2023-05-03T12:38:54;98878.03;;;15.69;100.00
21902;BME280;11115;46.038;14.612;2023-05-03T12:41:28;98894.38;;;15.88;100.00
21902;BME280;11115;46.038;14.612;2023-05-03T12:44:22;98888.81;;;15.79;100.00
21902;BME280;11115;46.038;14.612;2023-05-03T12:47:05;98896.03;;;15.80;100.00
21902;BME280;11115;46.038;14.612;2023-05-03T12:49:50;98888.00;;;15.78;100.00
21902;BME280;11115;46.038;14.612;2023-05-03T12:52:24;98812.38;;;15.25;100.00
21902;BME280;11115;46.038;14.612;2023-05-03T12:54:56;98885.53;;;15.86;100.00
21902;BME280;11115;46.038;14.612;2023-05-03T12:57:38;98881.66;;;15.99;100.00
21902;BME280;11115;46.038;14.612;2023-05-03T13:00:12;98878.31;;;16.14;100.00
21902;BME280;11115;46.038;14.612;2023-05-03T13:03:03;98875.31;;;16.19;100.00
21902;BME280;11115;46.038;14.612;2023-05-03T13:05:50;98873.75;;;16.09;100.00
21902;BME280;11115;46.038;14.612;2023-05-03T13:08:40;98871.09;;;16.13;100.00
21902;BME280;11115;46.038;14.612;2023-05-03T13:11:17;98865.84;;;16.20;100.00
21902;BME280;11115;46.038;14.612;2023-05-03T13:13:55;98876.47;;;16.27;100.00
21902;BME280;11115;46.038;14.612;2023-05-03T13:16:24;98877.38;;;16.39;100.00
21902;BME280;11115;46.038;14.612;2023-05-03T13:18:53;98880.97;;;16.69;100.00
21902;BME280;11115;46.038;14.612;2023-05-03T13:21:24;98865.22;;;16.65;100.00
21902;BME280;11115;46.038;14.612;2023-05-03T13:23:53;98857.28;;;16.46;100.00
21902;BME280;11115;46.038;14.612;2023-05-03T13:26:32;98862.19;;;16.49;100.00
21902;BME280;11115;46.038;14.612;2023-05-03T13:29:02;98855.09;;;16.52;100.00
21902;BME280;11115;46.038;14.612;2023-05-03T13:31:34;98850.00;;;16.54;100.00
21902;BME280;11115;46.038;14.612;2023-05-03T13:34:04;98856.81;;;16.65;100.00
21902;BME280;11115;46.038;14.612;2023-05-03T13:36:35;98855.00;;;16.69;100.00
21902;BME280;11115;46.038;14.612;2023-05-03T13:39:08;98857.94;;;16.73;100.00
21902;BME280;11115;46.038;14.612;2023-05-03T13:41:46;98845.53;;;16.61;100.00